createdAt,value
2022-08-21T00:00:45.985Z,84.41
2022-08-21T00:03:17.888Z,84.25
2022-08-21T00:05:50.464Z,84.29
2022-08-21T00:08:19.206Z,84.30
2022-08-21T00:10:48.280Z,84.46
2022-08-21T00:13:19.212Z,84.50
2022-08-21T00:15:48.379Z,84.56
2022-08-21T00:18:17.166Z,84.67
2022-08-21T00:20:46.820Z,84.51
2022-08-21T00:23:15.959Z,84.58
2022-08-21T00:25:47.617Z,84.63
2022-08-21T00:28:17.677Z,84.68
2022-08-21T00:30:46.888Z,84.56
2022-08-21T00:33:15.843Z,84.68
2022-08-21T00:35:50.519Z,84.57
2022-08-21T00:38:18.918Z,84.72
2022-08-21T00:40:49.407Z,84.77
2022-08-21T00:43:26.034Z,84.49
2022-08-21T00:45:55.052Z,84.73
2022-08-21T00:48:24.313Z,84.63
2022-08-21T00:50:57.903Z,84.85
2022-08-21T00:53:27.221Z,84.67
2022-08-21T00:55:56.777Z,84.60
2022-08-21T00:58:29.914Z,84.80
2022-08-21T01:00:59.187Z,84.72
2022-08-21T01:03:27.764Z,84.83
2022-08-21T01:05:56.695Z,84.96
2022-08-21T01:08:25.400Z,84.68
2022-08-21T01:10:55.261Z,84.83
2022-08-21T01:13:25.850Z,84.93
2022-08-21T01:15:57.571Z,84.75
2022-08-21T01:18:28.406Z,85.14
2022-08-21T01:21:12.626Z,84.99
2022-08-21T01:23:45.133Z,84.70
2022-08-21T01:26:15.149Z,84.86
2022-08-21T01:28:50.299Z,84.96
2022-08-21T01:31:26.136Z,84.86
2022-08-21T01:34:06.191Z,84.78
2022-08-21T01:36:40.821Z,84.79
2022-08-21T01:39:08.364Z,84.93
2022-08-21T01:41:36.742Z,85.09
2022-08-21T01:44:14.063Z,84.94
2022-08-21T01:46:46.821Z,84.95
2022-08-21T01:49:25.906Z,84.92
2022-08-21T01:52:12.832Z,84.91
2022-08-21T01:54:42.063Z,84.92
2022-08-21T01:57:17.032Z,84.97
2022-08-21T01:59:46.129Z,84.94
2022-08-21T02:02:14.600Z,85.10
2022-08-21T02:04:42.857Z,85.13
2022-08-21T02:07:18.071Z,84.81
2022-08-21T02:09:46.388Z,84.77
2022-08-21T02:12:15.251Z,84.87
2022-08-21T02:14:52.435Z,85.15
2022-08-21T02:17:27.814Z,85.19
2022-08-21T02:19:56.200Z,85.05
2022-08-21T02:22:48.374Z,85.10
2022-08-21T02:25:15.045Z,85.05
2022-08-21T02:27:48.774Z,84.96
2022-08-21T02:30:26.650Z,85.08
2022-08-21T02:32:54.982Z,85.27
2022-08-21T02:35:24.354Z,84.98
2022-08-21T02:37:56.561Z,85.35
2022-08-21T02:40:28.115Z,85.22
2022-08-21T02:42:59.516Z,85.36
2022-08-21T02:45:29.732Z,85.16
2022-08-21T02:48:01.261Z,85.11
2022-08-21T02:50:35.136Z,85.37
2022-08-21T02:53:17.744Z,85.38
2022-08-21T02:55:48.631Z,85.40
2022-08-21T02:58:19.325Z,85.33
2022-08-21T03:00:47.961Z,85.20
2022-08-21T03:03:16.207Z,85.28
2022-08-21T03:05:46.029Z,85.23
2022-08-21T03:08:19.861Z,85.41
2022-08-21T03:10:51.751Z,85.29
2022-08-21T03:13:22.076Z,85.07
2022-08-21T03:15:50.876Z,85.20
2022-08-21T03:18:20.015Z,85.22
2022-08-21T03:20:49.046Z,85.71
2022-08-21T03:23:20.091Z,85.57
2022-08-21T03:25:52.103Z,85.51
2022-08-21T03:28:24.984Z,85.63
2022-08-21T03:30:54.427Z,85.50
2022-08-21T03:33:31.879Z,85.47
2022-08-21T03:36:03.239Z,85.35
2022-08-21T03:38:34.870Z,85.40
2022-08-21T03:41:16.497Z,85.41
2022-08-21T03:43:44.895Z,85.38
2022-08-21T03:46:16.236Z,85.61
2022-08-21T03:48:44.703Z,85.22
2022-08-21T03:51:13.230Z,85.57
2022-08-21T03:53:43.092Z,85.50
2022-08-21T03:56:17.918Z,85.77
2022-08-21T03:58:47.172Z,85.70
2022-08-21T04:01:16.048Z,85.56
2022-08-21T04:03:44.465Z,85.66
2022-08-21T04:06:13.088Z,85.50
2022-08-21T04:08:48.439Z,85.81
2022-08-21T04:11:17.377Z,85.55
2022-08-21T04:13:45.606Z,85.65
2022-08-21T04:16:14.152Z,85.82
2022-08-21T04:18:43.914Z,85.71
2022-08-21T04:21:13.687Z,85.33
2022-08-21T04:23:42.449Z,85.63
2022-08-21T04:26:12.272Z,85.78
2022-08-21T04:28:40.699Z,85.60
2022-08-21T04:31:09.145Z,85.75
2022-08-21T04:33:37.553Z,85.66
2022-08-21T04:36:07.890Z,85.81
2022-08-21T04:38:37.501Z,85.67
2022-08-21T04:41:07.868Z,85.82
2022-08-21T04:43:37.888Z,85.72
2022-08-21T04:46:06.731Z,85.54
2022-08-21T04:48:35.347Z,85.59
2022-08-21T04:51:10.125Z,85.84
2022-08-21T04:53:40.782Z,85.66
2022-08-21T04:56:12.522Z,85.85
2022-08-21T04:59:00.052Z,85.80
2022-08-21T05:01:31.314Z,85.81
2022-08-21T05:04:02.611Z,85.66
2022-08-21T05:06:32.839Z,85.89
2022-08-21T05:09:02.161Z,85.72
2022-08-21T05:11:32.194Z,85.65
2022-08-21T05:14:01.895Z,85.78
2022-08-21T05:16:36.904Z,85.59
2022-08-21T05:19:06.426Z,85.85
2022-08-21T05:21:34.644Z,85.79
2022-08-21T05:24:03.076Z,85.90
2022-08-21T05:26:32.084Z,85.80
2022-08-21T05:29:02.225Z,85.72
2022-08-21T05:31:30.800Z,85.87
2022-08-21T05:34:01.709Z,85.77
2022-08-21T05:36:31.730Z,85.85
2022-08-21T05:39:00.271Z,85.91
2022-08-21T05:41:28.560Z,85.93
2022-08-21T05:43:56.987Z,85.84
2022-08-21T05:46:27.077Z,85.80
2022-08-21T05:48:55.478Z,86.03
2022-08-21T05:51:23.877Z,85.95
2022-08-21T05:53:52.272Z,85.86
2022-08-21T05:56:20.664Z,85.81
2022-08-21T05:58:51.961Z,85.67
2022-08-21T06:01:20.441Z,85.99
2022-08-21T06:03:51.057Z,85.78
2022-08-21T06:06:19.914Z,85.72
2022-08-21T06:08:48.154Z,85.97
2022-08-21T06:11:16.367Z,85.93
2022-08-21T06:13:44.517Z,85.85
2022-08-21T06:16:15.698Z,85.80
2022-08-21T06:18:46.035Z,85.76
2022-08-21T06:21:16.358Z,85.86
2022-08-21T06:23:45.066Z,85.76
2022-08-21T06:26:16.929Z,85.74
2022-08-21T06:28:45.564Z,85.83
2022-08-21T06:31:16.984Z,85.70
2022-08-21T06:33:45.397Z,85.84
2022-08-21T06:36:18.803Z,85.80
2022-08-21T06:38:54.850Z,85.65
2022-08-21T06:41:27.144Z,85.65
2022-08-21T06:43:56.763Z,85.61
2022-08-21T06:46:25.376Z,85.65
2022-08-21T06:48:53.786Z,85.73
2022-08-21T06:51:32.022Z,85.83
2022-08-21T06:54:08.409Z,85.70
2022-08-21T06:56:39.050Z,85.67
2022-08-21T06:59:08.198Z,85.85
2022-08-21T07:01:37.617Z,85.76
2022-08-21T07:04:06.140Z,85.65
2022-08-21T07:06:36.036Z,85.69
2022-08-21T07:09:13.888Z,85.63
2022-08-21T07:11:44.124Z,85.65
2022-08-21T07:14:20.203Z,85.50
2022-08-21T07:16:49.388Z,85.67
2022-08-21T07:19:44.762Z,85.72
2022-08-21T07:22:08.691Z,85.44
2022-08-21T07:24:37.388Z,85.56
2022-08-21T07:29:52.682Z,85.38
2022-08-21T07:32:24.099Z,85.53
2022-08-21T07:34:52.600Z,85.33
2022-08-21T07:37:22.428Z,85.41
2022-08-21T07:39:58.618Z,85.52
2022-08-21T07:42:43.837Z,85.64
2022-08-21T07:45:13.707Z,85.40
2022-08-21T07:47:44.036Z,85.35
2022-08-21T07:50:14.880Z,85.30
2022-08-21T07:53:00.934Z,85.34
2022-08-21T07:55:40.465Z,85.35
2022-08-21T07:58:30.281Z,85.18
2022-08-21T08:01:02.908Z,85.24
2022-08-21T08:03:32.759Z,85.21
2022-08-21T08:06:30.505Z,85.22
2022-08-21T08:12:05.339Z,85.15
2022-08-21T08:14:39.739Z,85.03
2022-08-21T08:17:09.778Z,84.97
2022-08-21T08:19:39.956Z,84.82
2022-08-21T08:22:15.765Z,85.01
2022-08-21T08:24:47.760Z,85.07
2022-08-21T08:27:19.826Z,84.87
2022-08-21T08:29:53.413Z,84.80
2022-08-21T08:32:23.910Z,84.78
2022-08-21T08:34:53.900Z,84.78
2022-08-21T08:37:24.033Z,84.74
2022-08-21T08:40:11.214Z,84.68
2022-08-21T08:42:43.463Z,84.61
2022-08-21T08:45:17.538Z,84.52
2022-08-21T08:47:49.437Z,84.69
2022-08-21T08:50:24.577Z,84.45
2022-08-21T08:53:00.109Z,84.37
2022-08-21T08:55:39.480Z,84.36
2022-08-21T08:58:11.258Z,84.27
2022-08-21T09:00:48.337Z,84.22
2022-08-21T09:03:19.355Z,84.05
2022-08-21T09:05:50.722Z,83.95
2022-08-21T09:08:50.922Z,84.15
2022-08-21T09:11:30.480Z,84.04
2022-08-21T09:14:10.192Z,83.61
2022-08-21T09:17:03.957Z,83.75
2022-08-21T09:19:50.074Z,83.68
2022-08-21T09:22:35.476Z,83.65
2022-08-21T09:25:12.282Z,83.64
2022-08-21T09:27:53.983Z,83.51
2022-08-21T09:31:23.435Z,83.26
2022-08-21T09:34:51.708Z,83.41
2022-08-21T09:44:57.575Z,83.01
2022-08-21T09:48:48.269Z,83.10
2022-08-21T09:59:09.367Z,82.31
2022-08-21T10:03:13.745Z,82.39
2022-08-21T10:06:35.610Z,82.02
2022-08-21T10:09:28.539Z,82.02
2022-08-21T10:12:55.881Z,81.90
2022-08-21T10:16:23.215Z,81.97
2022-08-21T10:19:32.692Z,81.74
2022-08-21T10:25:57.205Z,81.32
2022-08-21T10:29:05.270Z,81.38
2022-08-21T10:32:31.798Z,81.00
2022-08-21T10:35:38.897Z,81.10
2022-08-21T10:39:12.117Z,81.05
2022-08-21T10:42:47.870Z,80.61
2022-08-21T10:46:05.328Z,80.49
2022-08-21T10:49:04.992Z,80.33
2022-08-21T10:59:22.887Z,79.95
2022-08-21T11:01:49.920Z,79.79
2022-08-21T11:07:57.764Z,79.55
2022-08-21T11:11:08.819Z,79.28
2022-08-21T11:14:08.478Z,78.89
2022-08-21T11:17:25.776Z,79.33
2022-08-21T11:20:32.641Z,78.74
2022-08-21T11:23:26.810Z,78.67
2022-08-21T11:26:08.930Z,78.43
2022-08-21T11:28:43.975Z,78.71
2022-08-21T11:31:40.060Z,78.27
2022-08-21T11:35:01.894Z,78.27
2022-08-21T11:37:59.948Z,78.20
2022-08-21T11:41:16.343Z,78.02
2022-08-21T11:44:14.175Z,77.86
2022-08-21T11:47:27.159Z,77.53
2022-08-21T11:57:39.344Z,77.29
2022-08-21T12:00:42.182Z,77.06
2022-08-21T12:03:34.996Z,77.00
2022-08-21T12:06:31.548Z,76.85
2022-08-21T12:13:52.514Z,76.56
2022-08-21T12:27:48.109Z,75.74
2022-08-21T12:30:35.169Z,75.62
2022-08-21T12:33:05.989Z,75.49
2022-08-21T12:35:39.439Z,75.27
2022-08-21T12:38:17.993Z,74.99
2022-08-21T12:40:54.428Z,75.22
2022-08-21T12:43:32.488Z,74.92
2022-08-21T12:46:04.363Z,74.88
2022-08-21T12:48:37.589Z,74.70
2022-08-21T12:51:12.435Z,74.49
2022-08-21T12:53:46.651Z,74.49
2022-08-21T12:56:23.413Z,74.28
2022-08-21T12:58:55.778Z,74.05
2022-08-21T13:01:29.989Z,73.88
2022-08-21T13:04:06.050Z,73.73
2022-08-21T13:06:40.482Z,73.70
2022-08-21T13:09:12.642Z,73.48
2022-08-21T13:11:43.939Z,73.29
2022-08-21T13:14:27.267Z,73.18
2022-08-21T13:17:00.179Z,72.99
2022-08-21T13:19:30.552Z,72.93
2022-08-21T13:21:58.915Z,72.67
2022-08-21T13:24:44.195Z,72.45
2022-08-21T13:27:21.578Z,72.27
2022-08-21T13:29:54.147Z,72.26
2022-08-21T13:32:28.635Z,72.01
2022-08-21T13:34:56.990Z,72.00
2022-08-21T13:37:27.306Z,71.87
2022-08-21T13:39:55.477Z,71.59
2022-08-21T13:42:25.175Z,71.35
2022-08-21T13:44:55.249Z,71.31
2022-08-21T13:47:25.426Z,71.31
2022-08-21T13:49:59.119Z,71.06
2022-08-21T13:52:28.739Z,70.91
2022-08-21T13:54:59.307Z,70.76
2022-08-21T13:57:30.885Z,70.63
2022-08-21T14:00:19.849Z,70.18
2022-08-21T14:02:54.206Z,70.56
2022-08-21T14:05:24.354Z,69.94
2022-08-21T14:07:59.906Z,69.88
2022-08-21T14:10:31.475Z,69.79
2022-08-21T14:13:03.411Z,69.76
2022-08-21T14:15:35.343Z,69.70
2022-08-21T14:18:17.044Z,68.84
2022-08-21T14:20:46.030Z,69.19
2022-08-21T14:23:25.075Z,68.72
2022-08-21T14:25:54.063Z,68.90
2022-08-21T14:28:27.884Z,68.25
2022-08-21T14:30:57.979Z,68.37
2022-08-21T14:33:33.213Z,67.87
2022-08-21T14:36:01.911Z,67.63
2022-08-21T14:38:31.206Z,67.40
2022-08-21T14:41:02.203Z,67.29
2022-08-21T14:43:30.518Z,66.79
2022-08-21T14:45:59.126Z,66.86
2022-08-21T14:48:28.765Z,66.43
2022-08-21T14:51:00.328Z,66.38
2022-08-21T14:53:29.260Z,65.76
2022-08-21T14:56:06.628Z,65.61
2022-08-21T14:58:36.847Z,65.17
2022-08-21T15:01:06.647Z,64.96
2022-08-21T15:03:36.296Z,64.38
2022-08-21T15:06:06.627Z,64.05
2022-08-21T15:08:34.710Z,63.66
2022-08-21T15:11:12.415Z,63.71
2022-08-21T15:13:42.589Z,63.02
2022-08-21T15:16:12.834Z,62.73
2022-08-21T15:18:43.819Z,62.73
2022-08-21T15:21:12.367Z,62.54
2022-08-21T15:23:43.786Z,62.12
2022-08-21T15:26:17.126Z,61.40
2022-08-21T15:28:45.361Z,61.51
2022-08-21T15:31:16.067Z,61.22
2022-08-21T15:33:46.002Z,60.88
2022-08-21T15:36:14.139Z,60.78
2022-08-21T15:38:42.227Z,60.62
2022-08-21T15:41:10.151Z,60.17
2022-08-21T15:43:50.199Z,59.69
2022-08-21T15:46:20.569Z,59.34
2022-08-21T15:48:50.200Z,59.40
2022-08-21T15:51:19.233Z,59.10
2022-08-21T15:53:48.432Z,58.83
2022-08-21T15:56:23.459Z,58.64
2022-08-21T15:58:51.938Z,58.47
2022-08-21T16:01:20.545Z,58.23
2022-08-21T16:03:52.470Z,58.26
2022-08-21T16:06:38.262Z,58.01
2022-08-21T16:09:11.620Z,57.84
2022-08-21T16:11:43.696Z,57.55
2022-08-21T16:14:17.453Z,57.44
2022-08-21T16:16:45.541Z,57.38
2022-08-21T16:19:16.113Z,57.04
2022-08-21T16:21:46.196Z,56.86
2022-08-21T16:24:14.906Z,56.60
2022-08-21T16:26:43.175Z,56.66
2022-08-21T16:29:11.769Z,56.39
2022-08-21T16:31:43.417Z,56.14
2022-08-21T16:34:18.059Z,56.01
2022-08-21T16:36:46.461Z,55.79
2022-08-21T16:39:14.716Z,55.47
2022-08-21T16:41:43.256Z,55.54
2022-08-21T16:44:11.402Z,55.18
2022-08-21T16:46:44.132Z,55.32
2022-08-21T16:49:12.271Z,54.90
2022-08-21T16:51:41.822Z,55.16
2022-08-21T16:54:10.329Z,54.69
2022-08-21T16:56:40.433Z,54.94
2022-08-21T16:59:09.527Z,54.81
2022-08-21T17:01:37.846Z,54.88
2022-08-21T17:04:06.457Z,54.45
2022-08-21T17:06:34.541Z,54.55
2022-08-21T17:09:04.477Z,54.57
2022-08-21T17:11:37.210Z,54.25
2022-08-21T17:14:09.854Z,54.14
2022-08-21T17:16:39.755Z,54.25
2022-08-21T17:19:08.335Z,53.93
2022-08-21T17:21:39.181Z,53.80
2022-08-21T17:24:09.814Z,53.99
2022-08-21T17:26:39.390Z,53.90
2022-08-21T17:29:13.943Z,53.91
2022-08-21T17:31:44.256Z,53.69
2022-08-21T17:34:15.639Z,53.63
2022-08-21T17:36:43.960Z,53.54
2022-08-21T17:39:22.455Z,53.57
2022-08-21T17:41:58.035Z,53.54
2022-08-21T17:44:27.079Z,53.39
2022-08-21T17:46:58.033Z,53.29
2022-08-21T17:49:26.684Z,53.44
2022-08-21T17:51:55.039Z,53.24
2022-08-21T17:54:27.737Z,53.09
2022-08-21T17:56:57.343Z,53.30
2022-08-21T17:59:26.040Z,53.45
2022-08-21T18:02:01.341Z,53.22
2022-08-21T18:04:30.252Z,53.07
2022-08-21T18:06:58.852Z,53.12
2022-08-21T18:09:28.717Z,52.91
2022-08-21T18:11:58.235Z,52.86
2022-08-21T18:14:29.930Z,53.09
2022-08-21T18:16:58.477Z,53.11
2022-08-21T18:19:27.050Z,53.01
2022-08-21T18:21:58.823Z,52.91
2022-08-21T18:24:32.200Z,52.86
2022-08-21T18:27:00.560Z,52.94
2022-08-21T18:29:29.652Z,52.91
2022-08-21T18:31:58.386Z,52.90
2022-08-21T18:34:31.870Z,52.98
2022-08-21T18:37:09.994Z,53.02
2022-08-21T18:39:47.145Z,52.98
2022-08-21T20:29:43.025Z,54.40
2022-08-21T20:32:13.499Z,54.47
2022-08-21T20:34:45.119Z,54.55
2022-08-21T20:37:37.138Z,54.51
2022-08-21T20:40:33.063Z,54.53
2022-08-21T20:50:01.746Z,54.81
2022-08-21T20:53:00.281Z,55.02
2022-08-21T20:55:49.737Z,55.07
2022-08-21T20:59:01.393Z,55.01
2022-08-21T21:02:20.370Z,55.16
2022-08-21T21:05:25.423Z,55.17
2022-08-21T21:08:54.577Z,55.48
2022-08-21T21:12:14.724Z,55.56
2022-08-21T21:14:59.078Z,55.68
2022-08-21T21:18:05.140Z,55.71
2022-08-21T21:27:34.940Z,56.07
2022-08-21T21:36:35.460Z,56.21
2022-08-21T21:39:17.433Z,56.23
2022-08-21T21:41:54.332Z,56.42
2022-08-21T21:44:47.790Z,56.35
2022-08-21T21:47:32.256Z,56.43
2022-08-21T21:50:18.912Z,56.53
2022-08-21T21:53:12.359Z,56.76
2022-08-21T21:56:07.793Z,56.51
2022-08-21T21:58:49.001Z,56.88
2022-08-21T22:01:39.448Z,56.96
2022-08-21T22:04:17.119Z,57.02
2022-08-21T22:07:10.805Z,57.29
2022-08-21T22:09:45.824Z,57.09
2022-08-21T22:12:30.578Z,57.39
2022-08-21T22:14:58.984Z,57.45
2022-08-21T22:17:49.023Z,57.52
2022-08-21T22:20:25.110Z,57.61
2022-08-21T22:22:54.582Z,57.74
2022-08-21T22:25:27.630Z,57.73
2022-08-21T22:28:03.754Z,57.80
2022-08-21T22:30:43.066Z,58.07
2022-08-21T22:33:19.953Z,58.11
2022-08-21T22:35:51.642Z,58.27
2022-08-21T22:38:43.291Z,58.36
2022-08-21T22:41:17.257Z,58.38
2022-08-21T22:43:55.256Z,58.53
2022-08-21T22:46:31.489Z,58.65
2022-08-21T22:49:06.271Z,58.63
2022-08-21T22:51:40.791Z,58.65
2022-08-21T22:57:01.892Z,58.78
2022-08-21T22:59:34.909Z,58.95
2022-08-21T23:02:07.866Z,59.06
2022-08-21T23:04:48.916Z,59.29
2022-08-21T23:07:33.986Z,59.27
2022-08-21T23:10:02.895Z,59.27
2022-08-21T23:12:38.806Z,59.49
2022-08-21T23:15:17.941Z,59.49
2022-08-21T23:17:53.541Z,59.59
2022-08-21T23:20:29.762Z,59.81
2022-08-21T23:23:06.986Z,59.72
2022-08-21T23:25:51.648Z,59.84
2022-08-21T23:28:33.030Z,60.01
2022-08-21T23:31:11.731Z,60.00
2022-08-21T23:34:01.028Z,60.26
2022-08-21T23:37:02.338Z,60.32
2022-08-21T23:39:51.504Z,60.25
2022-08-21T23:42:53.295Z,60.42
2022-08-21T23:45:34.544Z,60.64
2022-08-21T23:48:19.850Z,60.70
2022-08-21T23:51:03.832Z,60.75
2022-08-21T23:53:50.569Z,60.96
2022-08-21T23:56:27.697Z,61.08
2022-08-21T23:59:04.968Z,61.12
